Time;durP1;ratioP1;P1;durP2;ratioP2;P2;SDS_P1;SDS_P2;PMS_P1;PMS_P2;Temp;Humidity;BMP_temperature;BMP_pressure;BME280_temperature;BME280_humidity;BME280_pressure;Samples;Min_cycle;Max_cycle;Signal;HPM_P1;HPM_P2
2022/10/31 00:01:19;;;;;;;0.38;0.28;;;;;;;;;;4176912;28;20476;-46
2022/10/31 00:03:20;;;;;;;0.43;0.10;;;;;;;;;;4193656;28;20080;-47
2022/10/31 00:05:21;;;;;;;0.10;0.10;;;;;;;;;;4188395;28;20060;-45
2022/10/31 00:07:22;;;;;;;0.10;0.10;;;;;;;;;;4183622;28;20479;-46
2022/10/31 00:09:24;;;;;;;0.15;0.10;;;;;;;;;;4191855;28;20060;-45
2022/10/31 00:11:25;;;;;;;0.22;0.20;;;;;;;;;;4189664;28;20202;-45
2022/10/31 00:13:27;;;;;;;0.30;0.25;;;;;;;;;;4196504;28;20060;-47
2022/10/31 00:15:28;;;;;;;0.20;0.13;;;;;;;;;;4195839;28;20118;-46
2022/10/31 00:17:29;;;;;;;0.10;0.10;;;;;;;;;;4195725;28;20447;-48
2022/10/31 00:19:31;;;;;;;0.13;0.10;;;;;;;;;;4195723;28;20056;-48
2022/10/31 00:21:33;;;;;;;0.17;0.17;;;;;;;;;;4187554;28;20106;-48
2022/10/31 00:23:34;;;;;;;0.77;0.20;;;;;;;;;;4194353;28;20057;-45
2022/10/31 00:25:38;;;;;;;0.20;0.20;;;;;;;;;;4192850;28;20075;-45
2022/10/31 00:27:39;;;;;;;0.35;0.20;;;;;;;;;;4195975;28;20048;-46
2022/10/31 00:29:41;;;;;;;0.20;0.10;;;;;;;;;;4197583;28;20446;-57
2022/10/31 00:31:42;;;;;;;0.40;0.20;;;;;;;;;;4196669;28;20098;-47
2022/10/31 00:33:43;;;;;;;0.47;0.28;;;;;;;;;;4196567;28;20118;-48
2022/10/31 00:35:51;;;;;;;0.30;0.10;;;;;;;;;;4197126;28;20060;-46
2022/10/31 00:37:52;;;;;;;0.10;0.10;;;;;;;;;;4197915;28;20052;-45
2022/10/31 00:39:54;;;;;;;0.15;0.10;;;;;;;;;;4196152;28;20045;-44
2022/10/31 00:41:55;;;;;;;0.20;0.20;;;;;;;;;;4195746;28;20508;-46
2022/10/31 00:43:56;;;;;;;0.17;0.08;;;;;;;;;;4195760;28;20056;-45
2022/10/31 00:45:58;;;;;;;0.47;0.22;;;;;;;;;;4188681;28;20052;-47
2022/10/31 00:47:59;;;;;;;0.10;0.10;;;;;;;;;;4172600;28;20071;-48
2022/10/31 00:50:01;;;;;;;0.22;0.20;;;;;;;;;;4189424;28;20059;-46
2022/10/31 00:52:02;;;;;;;0.38;0.28;;;;;;;;;;4189670;28;20055;-48
2022/10/31 00:54:04;;;;;;;0.30;0.20;;;;;;;;;;4196566;28;20067;-49
2022/10/31 00:56:05;;;;;;;0.30;0.20;;;;;;;;;;4197082;28;20056;-43
2022/10/31 00:58:06;;;;;;;0.10;0.10;;;;;;;;;;4182928;28;20558;-48
2022/10/31 01:00:08;;;;;;;0.10;0.10;;;;;;;;;;4196498;28;20048;-48
2022/10/31 01:02:10;;;;;;;0.20;0.20;;;;;;;;;;4195974;28;20408;-48
2022/10/31 01:04:12;;;;;;;0.25;0.13;;;;;;;;;;4178842;28;20053;-49
2022/10/31 01:06:13;;;;;;;0.17;0.10;;;;;;;;;;4195306;28;20052;-45
2022/10/31 01:08:15;;;;;;;0.25;0.17;;;;;;;;;;4192730;28;20138;-48
2022/10/31 01:10:18;;;;;;;0.10;0.10;;;;;;;;;;4194095;28;20118;-46
2022/10/31 01:12:20;;;;;;;0.60;0.30;;;;;;;;;;4192454;28;20056;-48
2022/10/31 01:14:21;;;;;;;0.10;0.10;;;;;;;;;;4195420;28;20056;-47
2022/10/31 01:16:25;;;;;;;0.20;0.10;;;;;;;;;;4182388;28;20721;-45
2022/10/31 01:18:27;;;;;;;0.10;0.10;;;;;;;;;;4178394;28;20061;-49
2022/10/31 01:20:29;;;;;;;0.50;0.20;;;;;;;;;;4186704;28;20049;-46
2022/10/31 01:22:30;;;;;;;0.55;0.20;;;;;;;;;;4184577;28;20107;-47
2022/10/31 01:24:35;;;;;;;0.20;0.20;;;;;;;;;;4191290;28;20098;-46
2022/10/31 01:26:37;;;;;;;0.15;0.10;;;;;;;;;;4187451;28;20056;-48
2022/10/31 01:28:43;;;;;;;0.20;0.20;;;;;;;;;;4179795;28;20053;-49
2022/10/31 01:30:45;;;;;;;0.17;0.10;;;;;;;;;;4184539;28;20079;-46
2022/10/31 01:32:46;;;;;;;0.10;0.10;;;;;;;;;;4192471;28;20049;-46
2022/10/31 01:34:48;;;;;;;0.08;0.08;;;;;;;;;;4194483;28;20106;-48
2022/10/31 01:36:51;;;;;;;0.30;0.20;;;;;;;;;;4188424;28;20185;-48
2022/10/31 01:38:55;;;;;;;0.10;0.10;;;;;;;;;;4196000;28;20483;-46
2022/10/31 01:40:56;;;;;;;0.40;0.22;;;;;;;;;;4187726;28;20056;-44
2022/10/31 01:42:57;;;;;;;0.22;0.10;;;;;;;;;;4190862;28;20423;-48
2022/10/31 01:45:01;;;;;;;0.52;0.30;;;;;;;;;;4195712;28;20506;-47
2022/10/31 01:47:07;;;;;;;0.20;0.20;;;;;;;;;;4177583;28;20424;-48
2022/10/31 01:49:18;;;;;;;0.22;0.20;;;;;;;;;;4195861;28;20048;-47
2022/10/31 01:51:20;;;;;;;0.40;0.15;;;;;;;;;;4194005;28;20060;-50
2022/10/31 01:53:22;;;;;;;0.88;0.20;;;;;;;;;;4188093;28;20064;-47
2022/10/31 01:55:32;;;;;;;0.38;0.20;;;;;;;;;;4196209;28;20056;-45
2022/10/31 01:57:34;;;;;;;0.22;0.20;;;;;;;;;;4194632;28;20060;-48
2022/10/31 01:59:40;;;;;;;0.20;0.20;;;;;;;;;;4195804;28;20048;-48
2022/10/31 02:01:41;;;;;;;0.20;0.20;;;;;;;;;;4194206;28;20413;-48
2022/10/31 02:03:44;;;;;;;0.25;0.20;;;;;;;;;;4182097;28;20113;-48
2022/10/31 02:05:45;;;;;;;0.20;0.20;;;;;;;;;;4191926;28;20060;-45
2022/10/31 02:08:06;;;;;;;0.13;0.10;;;;;;;;;;4191854;28;20052;-48
2022/10/31 02:10:07;;;;;;;0.57;0.30;;;;;;;;;;4194605;28;20044;-45
2022/10/31 02:12:10;;;;;;;0.40;0.17;;;;;;;;;;4193381;28;20110;-48
2022/10/31 02:14:11;;;;;;;0.10;0.10;;;;;;;;;;4187703;28;20056;-47
2022/10/31 02:16:13;;;;;;;0.13;0.10;;;;;;;;;;4194097;28;20067;-47
2022/10/31 02:18:14;;;;;;;0.28;0.20;;;;;;;;;;4194198;28;20052;-49
2022/10/31 02:20:22;;;;;;;0.30;0.20;;;;;;;;;;4194574;28;20052;-46
2022/10/31 02:22:29;;;;;;;0.20;0.20;;;;;;;;;;4194366;28;20060;-46
2022/10/31 02:24:44;;;;;;;0.15;0.10;;;;;;;;;;4183842;28;20473;-48
2022/10/31 02:27:32;;;;;;;0.22;0.20;;;;;;;;;;4192557;28;20419;-48
2022/10/31 02:30:04;;;;;;;0.32;0.22;;;;;;;;;;4133710;28;20061;-49
2022/10/31 02:32:28;;;;;;;0.20;0.10;;;;;;;;;;4165211;28;20402;-48
2022/10/31 02:34:37;;;;;;;0.20;0.15;;;;;;;;;;4188174;28;20063;-46
2022/10/31 02:37:09;;;;;;;0.32;0.10;;;;;;;;;;4192877;28;20055;-48
2022/10/31 02:39:13;;;;;;;0.20;0.20;;;;;;;;;;4193580;28;20518;-46
2022/10/31 02:41:35;;;;;;;0.25;0.20;;;;;;;;;;4187785;28;20397;-47
2022/10/31 02:43:44;;;;;;;0.20;0.20;;;;;;;;;;4185430;28;20103;-47
2022/10/31 02:45:50;;;;;;;0.20;0.20;;;;;;;;;;4187601;28;20109;-48
2022/10/31 02:47:53;;;;;;;0.50;0.30;;;;;;;;;;4179319;28;20056;-48
2022/10/31 02:50:05;;;;;;;0.35;0.20;;;;;;;;;;4180653;28;20412;-45
2022/10/31 02:52:33;;;;;;;0.20;0.20;;;;;;;;;;4173158;28;20110;-49
2022/10/31 02:54:37;;;;;;;;;;;;;;;;;;4197127;28;20059;-45
2022/10/31 02:56:38;;;;;;;1.48;0.20;;;;;;;;;;4194824;28;19975;-47
2022/10/31 02:58:49;;;;;;;0.10;0.10;;;;;;;;;;4189820;28;20538;-47
2022/10/31 03:00:57;;;;;;;0.57;0.32;;;;;;;;;;4191709;28;20052;-50
2022/10/31 03:03:11;;;;;;;0.50;0.30;;;;;;;;;;4196146;28;20392;-46
2022/10/31 03:05:21;;;;;;;0.10;0.10;;;;;;;;;;4173963;28;20057;-48
2022/10/31 03:07:39;;;;;;;0.73;0.30;;;;;;;;;;4191057;28;20450;-49
2022/10/31 03:09:42;;;;;;;0.32;0.20;;;;;;;;;;4189320;28;20454;-48
2022/10/31 03:11:58;;;;;;;0.15;0.10;;;;;;;;;;4180145;28;20087;-42
2022/10/31 03:14:10;;;;;;;0.50;0.30;;;;;;;;;;4147701;28;20085;-48
2022/10/31 03:16:36;;;;;;;0.20;0.10;;;;;;;;;;4186283;28;20049;-49
2022/10/31 03:19:04;;;;;;;0.57;0.20;;;;;;;;;;4189263;28;20048;-47
2022/10/31 03:21:11;;;;;;;0.68;0.30;;;;;;;;;;4190236;28;20061;-45
2022/10/31 03:23:15;;;;;;;0.30;0.20;;;;;;;;;;4190964;28;20057;-48
2022/10/31 03:25:16;;;;;;;0.20;0.20;;;;;;;;;;4209860;28;20143;-49
2022/10/31 03:27:21;;;;;;;0.55;0.20;;;;;;;;;;4176492;28;20053;-48
2022/10/31 03:29:27;;;;;;;0.30;0.28;;;;;;;;;;4177597;28;20143;-48
2022/10/31 03:31:38;;;;;;;0.25;0.20;;;;;;;;;;4185761;28;20078;-45
2022/10/31 03:33:41;;;;;;;0.15;0.13;;;;;;;;;;4192130;28;20458;-47
2022/10/31 03:35:45;;;;;;;0.30;0.20;;;;;;;;;;4191591;28;20106;-48
2022/10/31 03:37:47;;;;;;;0.15;0.10;;;;;;;;;;4187755;28;20049;-47
2022/10/31 03:39:50;;;;;;;0.40;0.30;;;;;;;;;;4163425;28;20049;-50
2022/10/31 03:42:20;;;;;;;0.30;0.28;;;;;;;;;;4158605;28;20057;-45
2022/10/31 03:44:22;;;;;;;0.20;0.20;;;;;;;;;;4164477;28;20158;-47
2022/10/31 03:46:32;;;;;;;0.43;0.25;;;;;;;;;;4195620;28;20101;-46
2022/10/31 03:48:34;;;;;;;0.17;0.17;;;;;;;;;;4168653;28;20069;-47
2022/10/31 03:51:06;;;;;;;0.10;0.10;;;;;;;;;;4181141;28;20412;-48
2022/10/31 03:53:13;;;;;;;0.43;0.20;;;;;;;;;;4192205;28;20048;-49
2022/10/31 03:55:20;;;;;;;0.40;0.20;;;;;;;;;;4196367;28;20502;-47
2022/10/31 03:57:39;;;;;;;0.38;0.30;;;;;;;;;;4182871;28;20057;-47
2022/10/31 03:59:43;;;;;;;0.30;0.20;;;;;;;;;;4180035;28;20041;-48
2022/10/31 04:01:48;;;;;;;0.50;0.10;;;;;;;;;;4179215;28;20049;-48
2022/10/31 04:03:50;;;;;;;0.40;0.30;;;;;;;;;;4180371;28;20527;-49
2022/10/31 04:05:53;;;;;;;0.20;0.20;;;;;;;;;;4201796;28;20052;-50
2022/10/31 04:07:56;;;;;;;0.40;0.25;;;;;;;;;;4188700;28;20075;-45
2022/10/31 04:10:00;;;;;;;0.28;0.20;;;;;;;;;;4191814;28;20514;-48
2022/10/31 04:12:04;;;;;;;0.95;0.20;;;;;;;;;;4178628;28;20056;-49
2022/10/31 04:14:22;;;;;;;0.93;0.20;;;;;;;;;;4187474;28;20103;-48
2022/10/31 04:16:24;;;;;;;0.10;0.10;;;;;;;;;;4195798;28;20057;-50
2022/10/31 04:18:26;;;;;;;0.32;0.20;;;;;;;;;;4179402;28;20057;-48
2022/10/31 04:20:32;;;;;;;0.57;0.25;;;;;;;;;;4192055;28;20091;-45
2022/10/31 04:22:33;;;;;;;0.20;0.20;;;;;;;;;;4193206;28;20052;-49
2022/10/31 04:24:36;;;;;;;0.47;0.35;;;;;;;;;;4195867;28;20052;-47
2022/10/31 04:26:37;;;;;;;0.60;0.30;;;;;;;;;;4178447;28;20052;-49
2022/10/31 04:28:38;;;;;;;0.80;0.10;;;;;;;;;;4179396;28;20049;-48
2022/10/31 04:30:40;;;;;;;0.28;0.28;;;;;;;;;;4187616;28;20157;-47
2022/10/31 04:32:42;;;;;;;0.17;0.10;;;;;;;;;;4185576;28;20122;-55
2022/10/31 04:34:43;;;;;;;0.35;0.30;;;;;;;;;;4180822;28;20381;-48
2022/10/31 04:36:45;;;;;;;0.30;0.20;;;;;;;;;;4195691;28;20126;-46
2022/10/31 04:38:49;;;;;;;0.20;0.20;;;;;;;;;;4185748;28;20094;-51
2022/10/31 04:41:15;;;;;;;0.22;0.22;;;;;;;;;;4183257;28;20106;-45
2022/10/31 04:43:26;;;;;;;0.45;0.30;;;;;;;;;;4184566;28;20056;-48
2022/10/31 04:45:27;;;;;;;0.47;0.20;;;;;;;;;;4195599;28;20577;-47
2022/10/31 04:47:32;;;;;;;0.20;0.20;;;;;;;;;;4195230;28;20454;-46
2022/10/31 04:49:34;;;;;;;0.68;0.10;;;;;;;;;;4195354;28;20052;-47
2022/10/31 04:51:36;;;;;;;0.38;0.20;;;;;;;;;;4180127;28;20063;-46
2022/10/31 04:53:37;;;;;;;0.20;0.20;;;;;;;;;;4195422;28;20555;-48
2022/10/31 04:55:58;;;;;;;0.30;0.20;;;;;;;;;;4180466;28;20063;-50
2022/10/31 04:58:02;;;;;;;0.10;0.10;;;;;;;;;;4182041;28;20052;-48
2022/10/31 05:00:03;;;;;;;0.38;0.22;;;;;;;;;;4191227;28;20049;-47
2022/10/31 05:02:04;;;;;;;0.20;0.20;;;;;;;;;;4178542;28;20134;-45
2022/10/31 05:04:27;;;;;;;0.60;0.22;;;;;;;;;;4180447;28;20049;-47
2022/10/31 05:06:28;;;;;;;0.45;0.20;;;;;;;;;;4178876;28;20079;-47
2022/10/31 05:08:29;;;;;;;0.20;0.20;;;;;;;;;;4178583;28;20468;-48
2022/10/31 05:10:31;;;;;;;0.43;0.30;;;;;;;;;;4188574;28;20053;-48
2022/10/31 05:12:34;;;;;;;0.38;0.20;;;;;;;;;;4181030;28;20146;-48
2022/10/31 05:14:41;;;;;;;1.38;0.40;;;;;;;;;;4184237;28;20075;-46
2022/10/31 05:17:01;;;;;;;0.55;0.47;;;;;;;;;;4186503;28;20057;-49
2022/10/31 05:19:20;;;;;;;;;;;;;;;;;;4182035;28;20057;-49
2022/10/31 05:21:41;;;;;;;1.77;0.40;;;;;;;;;;4182416;28;19929;-47
2022/10/31 05:23:43;;;;;;;0.45;0.28;;;;;;;;;;4178508;28;20109;-47
2022/10/31 05:25:44;;;;;;;0.80;0.35;;;;;;;;;;4178294;28;20079;-49
2022/10/31 05:27:47;;;;;;;0.35;0.28;;;;;;;;;;4179851;28;20048;-47
2022/10/31 05:29:49;;;;;;;0.28;0.25;;;;;;;;;;4185388;28;20593;-48
2022/10/31 05:31:50;;;;;;;0.68;0.30;;;;;;;;;;4194448;28;20124;-47
2022/10/31 05:34:14;;;;;;;0.40;0.40;;;;;;;;;;4195799;28;20085;-45
2022/10/31 05:36:41;;;;;;;0.40;0.30;;;;;;;;;;4196091;28;20464;-45
2022/10/31 05:39:00;;;;;;;0.30;0.20;;;;;;;;;;4181180;28;20258;-47
2022/10/31 05:41:06;;;;;;;1.00;0.38;;;;;;;;;;4189725;28;20915;-47
2022/10/31 05:43:08;;;;;;;1.17;0.30;;;;;;;;;;4194806;28;20057;-48
2022/10/31 05:45:13;;;;;;;0.77;0.38;;;;;;;;;;4191231;28;20436;-49
2022/10/31 05:47:41;;;;;;;0.85;0.43;;;;;;;;;;4181552;28;20052;-48
2022/10/31 05:50:14;;;;;;;0.35;0.30;;;;;;;;;;4195891;28;20060;-47
2022/10/31 05:52:32;;;;;;;1.15;0.32;;;;;;;;;;4178137;28;20124;-45
2022/10/31 05:54:41;;;;;;;0.30;0.25;;;;;;;;;;4187033;28;20048;-48
2022/10/31 05:56:43;;;;;;;0.88;0.40;;;;;;;;;;4182519;28;20064;-48
2022/10/31 05:58:45;;;;;;;0.65;0.40;;;;;;;;;;4194484;28;20052;-46
2022/10/31 06:00:46;;;;;;;0.75;0.30;;;;;;;;;;4192264;28;20481;-45
2022/10/31 06:02:48;;;;;;;0.28;0.25;;;;;;;;;;4183846;28;20064;-48
2022/10/31 06:05:18;;;;;;;0.20;0.20;;;;;;;;;;4177150;28;20064;-47
2022/10/31 06:07:23;;;;;;;0.65;0.30;;;;;;;;;;4188445;28;20057;-48
2022/10/31 06:09:27;;;;;;;0.45;0.30;;;;;;;;;;4186188;28;20201;-45
2022/10/31 06:11:31;;;;;;;1.05;0.30;;;;;;;;;;4167760;28;20049;-44
2022/10/31 06:13:40;;;;;;;0.45;0.30;;;;;;;;;;4187313;28;20060;-45
2022/10/31 06:15:53;;;;;;;0.28;0.25;;;;;;;;;;4187701;28;20049;-50
2022/10/31 06:18:05;;;;;;;0.38;0.20;;;;;;;;;;4164260;28;20057;-48
2022/10/31 06:20:13;;;;;;;0.50;0.30;;;;;;;;;;4187019;28;20088;-48
2022/10/31 06:22:31;;;;;;;0.30;0.22;;;;;;;;;;4185109;28;20055;-47
2022/10/31 06:24:35;;;;;;;0.45;0.30;;;;;;;;;;4190507;28;20373;-44
2022/10/31 06:26:54;;;;;;;0.20;0.20;;;;;;;;;;4197058;28;20262;-45
2022/10/31 06:28:57;;;;;;;0.30;0.30;;;;;;;;;;4193263;28;20105;-42
2022/10/31 06:31:19;;;;;;;0.55;0.43;;;;;;;;;;4183944;28;20180;-47
2022/10/31 06:33:20;;;;;;;0.50;0.50;;;;;;;;;;4181396;28;20087;-45
2022/10/31 06:35:31;;;;;;;1.90;0.35;;;;;;;;;;4183971;28;20060;-45
2022/10/31 06:37:32;;;;;;;0.73;0.55;;;;;;;;;;4179566;28;20689;-46
2022/10/31 06:39:40;;;;;;;0.32;0.30;;;;;;;;;;4177927;28;20078;-44
2022/10/31 06:41:44;;;;;;;0.40;0.40;;;;;;;;;;4189258;28;20351;-48
2022/10/31 06:43:47;;;;;;;2.25;0.43;;;;;;;;;;4193980;28;20070;-43
2022/10/31 06:46:03;;;;;;;0.47;0.32;;;;;;;;;;4184398;28;20099;-46
2022/10/31 06:48:20;;;;;;;0.30;0.30;;;;;;;;;;4190265;28;20153;-45
2022/10/31 06:50:45;;;;;;;0.68;0.30;;;;;;;;;;4186070;28;20067;-44
2022/10/31 06:52:56;;;;;;;1.23;0.30;;;;;;;;;;4188910;28;20048;-44
2022/10/31 06:54:58;;;;;;;0.57;0.40;;;;;;;;;;4202844;28;20056;-44
2022/10/31 06:57:00;;;;;;;0.32;0.32;;;;;;;;;;4168277;28;20104;-43
2022/10/31 06:59:01;;;;;;;0.60;0.38;;;;;;;;;;4184343;28;20105;-46
2022/10/31 07:01:21;;;;;;;0.52;0.50;;;;;;;;;;4189500;28;20573;-44
2022/10/31 07:03:23;;;;;;;0.40;0.40;;;;;;;;;;4184064;28;20448;-46
2022/10/31 07:05:25;;;;;;;0.63;0.35;;;;;;;;;;4191173;28;20149;-44
2022/10/31 07:07:26;;;;;;;1.75;0.30;;;;;;;;;;4175269;28;21194;-41
2022/10/31 07:09:28;;;;;;;1.10;0.63;;;;;;;;;;4175957;28;20049;-46
2022/10/31 07:11:32;;;;;;;0.40;0.40;;;;;;;;;;4180505;28;20056;-42
2022/10/31 07:13:34;;;;;;;0.60;0.50;;;;;;;;;;4154286;28;20056;-41
2022/10/31 07:15:44;;;;;;;1.83;0.60;;;;;;;;;;4174314;28;20056;-43
2022/10/31 07:17:45;;;;;;;0.75;0.47;;;;;;;;;;4179716;28;20126;-46
2022/10/31 07:19:46;;;;;;;1.35;0.40;;;;;;;;;;4167311;28;20483;-44
2022/10/31 07:21:51;;;;;;;1.15;0.40;;;;;;;;;;4166994;28;20541;-45
2022/10/31 07:23:52;;;;;;;0.43;0.30;;;;;;;;;;4150123;28;20235;-52
2022/10/31 07:26:12;;;;;;;;;;;;;;;;;;4162815;28;20068;-46
2022/10/31 07:28:19;;;;;;;0.82;0.70;;;;;;;;;;4140799;28;20565;-44
2022/10/31 07:30:23;;;;;;;0.80;0.40;;;;;;;;;;4162660;28;20061;-48
2022/10/31 07:32:40;;;;;;;0.75;0.47;;;;;;;;;;4155936;28;20068;-46
2022/10/31 07:34:42;;;;;;;0.68;0.50;;;;;;;;;;4171613;28;20067;-42
2022/10/31 07:36:58;;;;;;;0.50;0.40;;;;;;;;;;4170766;28;20060;-44
2022/10/31 07:38:59;;;;;;;1.25;0.80;;;;;;;;;;4171205;28;20571;-45
2022/10/31 07:41:00;;;;;;;0.80;0.50;;;;;;;;;;4171750;28;20083;-44
2022/10/31 07:43:05;;;;;;;3.63;0.70;;;;;;;;;;4164684;28;20439;-45
2022/10/31 07:45:38;;;;;;;0.65;0.40;;;;;;;;;;4160607;28;20463;-48
2022/10/31 07:48:15;;;;;;;0.77;0.40;;;;;;;;;;4139622;28;20460;-45
2022/10/31 07:50:55;;;;;;;1.55;0.60;;;;;;;;;;4116814;28;20798;-43
2022/10/31 07:53:16;;;;;;;1.67;0.60;;;;;;;;;;4134474;28;20163;-45
2022/10/31 07:55:28;;;;;;;1.73;0.43;;;;;;;;;;4122049;28;20668;-46
2022/10/31 07:57:32;;;;;;;2.25;0.57;;;;;;;;;;4168267;28;20423;-44
2022/10/31 07:59:33;;;;;;;1.40;0.45;;;;;;;;;;4132019;28;20162;-46
2022/10/31 08:01:35;;;;;;;1.38;0.60;;;;;;;;;;4140385;28;21493;-45
2022/10/31 08:03:54;;;;;;;2.65;0.60;;;;;;;;;;4157733;28;20060;-47
2022/10/31 08:06:14;;;;;;;0.90;0.50;;;;;;;;;;4133682;28;20157;-42
2022/10/31 08:08:34;;;;;;;1.25;0.60;;;;;;;;;;4152049;28;20594;-46
2022/10/31 08:10:36;;;;;;;0.70;0.55;;;;;;;;;;4165853;28;20056;-47
2022/10/31 08:12:38;;;;;;;2.95;0.60;;;;;;;;;;4147217;28;20170;-44
2022/10/31 08:14:42;;;;;;;0.85;0.57;;;;;;;;;;4164777;28;20132;-48
2022/10/31 08:16:43;;;;;;;0.80;0.30;;;;;;;;;;4144334;28;20484;-46
2022/10/31 08:18:46;;;;;;;0.88;0.60;;;;;;;;;;4174075;28;20503;-45
2022/10/31 08:20:49;;;;;;;0.85;0.57;;;;;;;;;;4166999;28;20668;-50
2022/10/31 08:23:02;;;;;;;0.77;0.60;;;;;;;;;;4171077;28;20671;-51
2022/10/31 08:25:04;;;;;;;1.00;0.40;;;;;;;;;;4168847;28;20458;-49
2022/10/31 08:27:06;;;;;;;2.35;0.57;;;;;;;;;;4165910;28;20068;-47
2022/10/31 08:29:07;;;;;;;1.67;0.50;;;;;;;;;;4163036;28;20056;-44
2022/10/31 08:31:11;;;;;;;1.30;0.60;;;;;;;;;;4143808;28;20058;-47
2022/10/31 08:33:17;;;;;;;0.47;0.35;;;;;;;;;;4171600;28;20140;-48
2022/10/31 08:35:37;;;;;;;1.92;0.35;;;;;;;;;;4169479;28;21017;-47
2022/10/31 08:37:57;;;;;;;;;;;;;;;;;;4169429;28;20932;-49
2022/10/31 08:40:00;;;;;;;1.55;0.60;;;;;;;;;;4184427;28;19928;-47
2022/10/31 08:42:02;;;;;;;1.20;0.50;;;;;;;;;;4166042;28;20680;-47
2022/10/31 08:44:03;;;;;;;0.50;0.40;;;;;;;;;;4185110;28;20126;-47
2022/10/31 08:46:06;;;;;;;0.75;0.45;;;;;;;;;;4166391;28;20427;-51
2022/10/31 08:48:13;;;;;;;0.60;0.50;;;;;;;;;;4166680;28;20067;-46
2022/10/31 08:50:15;;;;;;;1.95;0.50;;;;;;;;;;4171425;28;20171;-47
2022/10/31 08:52:24;;;;;;;1.27;0.40;;;;;;;;;;4168446;28;20052;-47
2022/10/31 08:54:26;;;;;;;0.80;0.40;;;;;;;;;;4167285;28;20535;-51
2022/10/31 08:56:55;;;;;;;1.77;0.52;;;;;;;;;;4170878;28;20059;-46
2022/10/31 08:59:06;;;;;;;3.25;0.70;;;;;;;;;;4161218;28;20507;-46
2022/10/31 09:01:29;;;;;;;3.20;0.60;;;;;;;;;;4157554;28;20440;-51
2022/10/31 09:03:31;;;;;;;1.40;0.70;;;;;;;;;;4161821;28;20109;-48
2022/10/31 09:05:34;;;;;;;1.65;0.40;;;;;;;;;;4151554;28;20061;-47
2022/10/31 09:07:36;;;;;;;0.57;0.47;;;;;;;;;;4136467;28;20678;-44
2022/10/31 09:09:38;;;;;;;1.77;0.60;;;;;;;;;;4158770;28;20415;-45
2022/10/31 09:11:40;;;;;;;2.85;0.60;;;;;;;;;;4175916;28;20083;-44
2022/10/31 09:14:00;;;;;;;1.02;0.57;;;;;;;;;;4166908;28;20063;-47
2022/10/31 09:16:14;;;;;;;1.33;0.80;;;;;;;;;;4162982;28;20728;-43
2022/10/31 09:18:18;;;;;;;2.75;0.80;;;;;;;;;;4151987;28;20709;-47
2022/10/31 09:20:25;;;;;;;2.80;0.80;;;;;;;;;;4169762;28;20053;-48
2022/10/31 09:22:26;;;;;;;1.63;0.60;;;;;;;;;;4162352;28;20056;-43
2022/10/31 09:24:28;;;;;;;0.75;0.50;;;;;;;;;;4163287;28;20583;-49
2022/10/31 09:26:30;;;;;;;1.50;0.68;;;;;;;;;;4172255;28;20441;-46
2022/10/31 09:28:58;;;;;;;2.92;0.70;;;;;;;;;;4160277;28;21310;-48
2022/10/31 09:30:59;;;;;;;1.10;0.60;;;;;;;;;;4157666;28;20579;-47
2022/10/31 09:33:22;;;;;;;1.05;0.70;;;;;;;;;;4147307;28;20359;-43
2022/10/31 09:35:37;;;;;;;2.85;0.90;;;;;;;;;;4162531;28;20661;-46
2022/10/31 09:37:39;;;;;;;0.85;0.63;;;;;;;;;;4164701;28;20065;-49
2022/10/31 09:39:40;;;;;;;0.77;0.60;;;;;;;;;;4164772;28;20077;-46
2022/10/31 09:42:05;;;;;;;0.80;0.57;;;;;;;;;;4153280;28;20056;-44
2022/10/31 09:44:33;;;;;;;1.15;0.60;;;;;;;;;;4171281;28;20106;-47
2022/10/31 09:47:00;;;;;;;0.90;0.57;;;;;;;;;;4157917;28;20056;-47
2022/10/31 09:49:10;;;;;;;;;;;;;;;;;;4164726;28;20321;-46
2022/10/31 09:51:57;;;;;;;0.90;0.60;;;;;;;;;;4163715;28;19924;-47
2022/10/31 09:54:16;;;;;;;1.75;0.70;;;;;;;;;;4165252;28;20052;-46
2022/10/31 09:56:20;;;;;;;2.28;0.60;;;;;;;;;;4163390;28;20214;-45
2022/10/31 09:58:26;;;;;;;2.00;1.00;;;;;;;;;;4171555;28;20056;-48
2022/10/31 10:00:27;;;;;;;1.30;0.60;;;;;;;;;;4162796;28;20053;-46
2022/10/31 10:02:40;;;;;;;0.70;0.60;;;;;;;;;;4156395;28;21111;-47
2022/10/31 10:04:48;;;;;;;1.73;0.90;;;;;;;;;;4167777;28;20161;-50
2022/10/31 10:06:54;;;;;;;0.90;0.45;;;;;;;;;;4169420;28;20056;-53
2022/10/31 10:09:14;;;;;;;0.85;0.70;;;;;;;;;;4168224;28;20067;-46
2022/10/31 10:11:51;;;;;;;0.82;0.60;;;;;;;;;;4172742;28;20048;-47
2022/10/31 10:14:15;;;;;;;0.77;0.60;;;;;;;;;;4175469;28;20804;-47
2022/10/31 10:16:41;;;;;;;3.70;0.57;;;;;;;;;;4165632;28;20539;-49
2022/10/31 10:19:39;;;;;;;3.05;0.52;;;;;;;;;;4171953;28;20119;-51
2022/10/31 10:21:46;;;;;;;2.47;0.57;;;;;;;;;;4114856;28;20097;-48
2022/10/31 10:24:09;;;;;;;0.93;0.47;;;;;;;;;;4093971;28;20177;-46
2022/10/31 10:26:21;;;;;;;1.27;0.80;;;;;;;;;;4125457;28;20053;-49
2022/10/31 10:28:27;;;;;;;0.98;0.57;;;;;;;;;;4168743;28;20061;-48
2022/10/31 10:30:48;;;;;;;2.97;0.70;;;;;;;;;;4158046;28;20082;-46
2022/10/31 10:32:53;;;;;;;1.48;0.70;;;;;;;;;;4162973;28;20134;-51
2022/10/31 10:35:09;;;;;;;0.63;0.50;;;;;;;;;;4166839;28;20409;-49
2022/10/31 10:37:22;;;;;;;1.80;0.70;;;;;;;;;;4170610;28;20052;-47
2022/10/31 10:39:27;;;;;;;1.48;0.80;;;;;;;;;;4173058;28;20076;-49
2022/10/31 10:41:31;;;;;;;4.80;0.50;;;;;;;;;;4163348;28;20060;-51
2022/10/31 10:43:35;;;;;;;0.85;0.60;;;;;;;;;;4175255;28;20064;-51
2022/10/31 10:48:07;;;;;;;0.82;0.65;;;;;;;;;;4175036;28;20056;-46
2022/10/31 10:50:09;;;;;;;1.38;0.80;;;;;;;;;;4170116;28;20048;-54
2022/10/31 10:52:24;;;;;;;1.15;0.55;;;;;;;;;;4180942;28;20077;-47
2022/10/31 10:54:38;;;;;;;0.73;0.40;;;;;;;;;;4169331;28;20159;-47
2022/10/31 10:56:54;;;;;;;1.65;0.47;;;;;;;;;;4177122;28;20506;-51
2022/10/31 10:58:56;;;;;;;1.17;0.80;;;;;;;;;;4179123;28;20052;-47
2022/10/31 11:00:57;;;;;;;1.45;0.60;;;;;;;;;;4166711;28;20048;-52
2022/10/31 11:02:58;;;;;;;0.68;0.63;;;;;;;;;;4170249;28;21354;-44
2022/10/31 11:05:00;;;;;;;0.77;0.52;;;;;;;;;;4170036;28;20679;-52
2022/10/31 11:07:06;;;;;;;2.60;0.85;;;;;;;;;;4165518;28;20053;-52
2022/10/31 11:09:10;;;;;;;1.00;0.70;;;;;;;;;;4166326;28;20065;-47
2022/10/31 11:11:29;;;;;;;0.73;0.60;;;;;;;;;;4163869;28;20158;-47
2022/10/31 11:13:31;;;;;;;0.98;0.70;;;;;;;;;;4165764;28;20550;-52
2022/10/31 11:16:10;;;;;;;1.00;0.80;;;;;;;;;;4153290;28;20094;-45
2022/10/31 11:18:21;;;;;;;0.82;0.50;;;;;;;;;;4171868;28;20052;-46
2022/10/31 11:20:34;;;;;;;0.98;0.70;;;;;;;;;;4162127;28;20547;-46
2022/10/31 11:22:35;;;;;;;1.00;0.70;;;;;;;;;;4171680;28;20056;-47
2022/10/31 11:24:40;;;;;;;0.70;0.70;;;;;;;;;;4169507;28;20087;-45
2022/10/31 11:26:43;;;;;;;1.02;0.80;;;;;;;;;;4176177;28;20821;-51
2022/10/31 11:28:56;;;;;;;0.88;0.60;;;;;;;;;;4185132;28;20466;-45
2022/10/31 11:30:58;;;;;;;0.88;0.65;;;;;;;;;;4182694;28;20052;-46
2022/10/31 11:33:00;;;;;;;0.80;0.60;;;;;;;;;;4181622;28;20196;-47
2022/10/31 11:35:07;;;;;;;1.50;0.95;;;;;;;;;;4183111;28;20047;-48
2022/10/31 11:37:13;;;;;;;1.00;0.50;;;;;;;;;;4170326;28;21187;-49
2022/10/31 11:39:21;;;;;;;1.60;0.70;;;;;;;;;;4167919;28;20061;-50
2022/10/31 11:41:27;;;;;;;2.97;0.63;;;;;;;;;;4182358;28;20056;-44
2022/10/31 11:43:29;;;;;;;3.03;0.93;;;;;;;;;;4154570;28;20061;-45
2022/10/31 11:45:32;;;;;;;1.52;0.80;;;;;;;;;;4169474;28;20434;-47
2022/10/31 11:47:33;;;;;;;1.30;0.70;;;;;;;;;;4177922;28;20060;-41
2022/10/31 11:49:36;;;;;;;1.48;0.70;;;;;;;;;;4156331;28;20134;-44
2022/10/31 11:51:37;;;;;;;1.52;0.80;;;;;;;;;;4175911;28;20060;-41
2022/10/31 11:53:50;;;;;;;1.17;0.82;;;;;;;;;;4174454;28;20067;-43
2022/10/31 11:56:21;;;;;;;1.20;0.88;;;;;;;;;;4168662;28;20416;-44
2022/10/31 11:58:26;;;;;;;0.85;0.65;;;;;;;;;;4169723;28;20055;-45
2022/10/31 12:00:38;;;;;;;1.42;1.00;;;;;;;;;;4171109;28;20052;-44
2022/10/31 12:02:39;;;;;;;1.35;0.73;;;;;;;;;;4175064;28;20056;-43
2022/10/31 12:04:46;;;;;;;1.30;0.80;;;;;;;;;;4180420;28;20106;-48
2022/10/31 12:06:54;;;;;;;1.23;1.10;;;;;;;;;;4179904;28;20493;-45
2022/10/31 12:08:55;;;;;;;0.68;0.60;;;;;;;;;;4176923;28;20162;-44
2022/10/31 12:11:18;;;;;;;2.50;0.73;;;;;;;;;;4176000;28;20048;-45
2022/10/31 12:13:37;;;;;;;0.70;0.60;;;;;;;;;;4168976;28;20147;-46
2022/10/31 12:15:43;;;;;;;3.13;1.10;;;;;;;;;;4176065;28;20774;-42
2022/10/31 12:17:52;;;;;;;1.30;0.77;;;;;;;;;;4177752;28;20056;-44
2022/10/31 12:20:12;;;;;;;1.63;0.70;;;;;;;;;;4171286;28;20481;-42
2022/10/31 12:22:22;;;;;;;1.55;1.08;;;;;;;;;;4172769;28;20542;-42
2022/10/31 12:24:37;;;;;;;1.25;0.70;;;;;;;;;;4176249;28;22151;-48
2022/10/31 12:26:50;;;;;;;1.67;0.60;;;;;;;;;;4169858;28;20059;-44
2022/10/31 12:29:02;;;;;;;1.55;0.73;;;;;;;;;;4166335;28;20091;-44
2022/10/31 12:31:19;;;;;;;2.25;0.60;;;;;;;;;;4170340;28;20074;-43
2022/10/31 12:33:21;;;;;;;1.38;0.93;;;;;;;;;;4168030;28;20060;-44
2022/10/31 12:35:27;;;;;;;1.63;0.80;;;;;;;;;;4170946;28;20480;-44
2022/10/31 12:37:41;;;;;;;1.65;1.05;;;;;;;;;;4173392;28;20137;-42
2022/10/31 12:39:58;;;;;;;0.90;0.70;;;;;;;;;;4179516;28;20490;-47
2022/10/31 12:42:05;;;;;;;0.90;0.70;;;;;;;;;;4167828;28;20075;-46
2022/10/31 12:44:32;;;;;;;1.83;0.90;;;;;;;;;;4180766;28;20056;-48
2022/10/31 12:46:55;;;;;;;1.40;0.73;;;;;;;;;;4152415;28;20498;-45
2022/10/31 12:49:05;;;;;;;0.85;0.60;;;;;;;;;;4176958;28;20060;-44
2022/10/31 12:51:28;;;;;;;2.55;0.80;;;;;;;;;;4177826;28;20068;-46
2022/10/31 12:53:45;;;;;;;0.50;0.50;;;;;;;;;;4181034;28;20158;-44
2022/10/31 12:56:04;;;;;;;0.85;0.70;;;;;;;;;;4181849;28;20150;-45